This is the latest recevied weather packets stored in our database for station/object KK7MLS-13. If no packets are shown the sender has not sent any weather packets the latest 10 day(s).
| Time | Temp. | Humidity | Pressure | Rain* | Wind** | Luminosity | Snow |
|---|---|---|---|---|---|---|---|
| 1777439763 | 8.33° C | 79% | 1024.2 hPa | 0 mm | - | 0 W/m² | - |
| 1777439459 | 8.89° C | 79% | 1024.1 hPa | 0 mm | - | 0 W/m² | - |
| 1777439154 | 8.89° C | 79% | 1024.2 hPa | 0 mm | - | 0 W/m² | - |
| 1777438852 | 8.89° C | 78% | 1024.1 hPa | 0 mm | - | 0 W/m² | - |
| 1777438548 | 8.89° C | 78% | 1024.1 hPa | 0 mm | - | 0 W/m² | - |
| 1777437333 | 9.44° C | 75% | 1023.9 hPa | 0 mm | - | 0 W/m² | - |
| 1777433388 | 11.67° C | 66% | 1023.4 hPa | 0 mm | - | 0 W/m² | - |
| 1777430046 | 13.33° C | 60% | 1023 hPa | 0 mm | - | 17 W/m² | - |
| 1777429439 | 13.89° C | 58% | 1023 hPa | 0 mm | - | 23 W/m² | - |
| 1777428223 | 15° C | 55% | 1023 hPa | 0 mm | - | 44 W/m² | - |
| 1777427615 | 14.44° C | 55% | 1023 hPa | 0 mm | - | 53 W/m² | - |
| 1777426706 | 14.44° C | 56% | 1023.1 hPa | 0 mm | - | 43 W/m² | - |
| 1777426403 | 14.44° C | 55% | 1023.1 hPa | 0 mm | - | 47 W/m² | - |
| 1777426099 | 14.44° C | 56% | 1023.1 hPa | 0 mm | - | 61 W/m² | - |
| 1777425794 | 14.44° C | 54% | 1023 hPa | 0 mm | - | 71 W/m² | - |
| 1777424577 | 14.44° C | 56% | 1023 hPa | 0 mm | - | 77 W/m² | - |
| 1777423969 | 15° C | 55% | 1022.8 hPa | 0 mm | - | 68 W/m² | - |
| 1777423666 | 15° C | 55% | 1023 hPa | 0 mm | - | 65 W/m² | - |
| 1777422452 | 15.56° C | 52% | 1022.9 hPa | 0 mm | - | 104 W/m² | - |
| 1777422148 | 15° C | 54% | 1022.9 hPa | 0 mm | - | 109 W/m² | - |
| 1777421847 | 15° C | 53% | 1023.2 hPa | 0 mm | - | 103 W/m² | - |
| 1777416086 | 16.11° C | 46% | 1023.4 hPa | 0 mm | - | 191 W/m² | - |
| 1777414868 | 16.67° C | 46% | 1023.3 hPa | 0 mm | - | 221 W/m² | - |
| 1777413653 | 16.11° C | 48% | 1023.8 hPa | 0 mm | - | 284 W/m² | - |
| 1777411833 | 16.11° C | 51% | 1023.9 hPa | 0 mm | - | 287 W/m² | - |
* Rain latest hour (hover to see other rain measurements)
** Current wind speed in m/s (hover to see current wind gust speed)